Terminal Aerodrome Forecast
Issued by NWS

Home | Current Version | Previous Version | Text Only | Print | Product List | Glossary On
Versions: 1 2 3 4 5 6 7 8 9 10 11 12
000
FTAK31 PAFA 051737
TAFABT
TAF
PABT 051737Z 0518/0618 VRB05KT P6SM VCSH SCT035 BKN050 OVC070
     FM052200 VRB05KT P6SM VCTS SCT035 BKN050CB OVC070
     FM060300 VRB05KT P6SM VCSH SCT035 BKN050 OVC070
     FM060900 VRB03KT P6SM SCT050 BKN100=

USA.gov is the U.S. government's official web portal to all federal, state and local government web resources and services.